createdAt,value
2017-08-21T00:02:20.506Z,15.10
2017-08-21T00:04:49.458Z,15.43
2017-08-21T00:07:17.834Z,18.07
2017-08-21T00:09:46.183Z,15.60
2017-08-21T00:12:14.564Z,18.37
2017-08-21T00:14:42.917Z,19.43
2017-08-21T00:17:11.259Z,12.30
2017-08-21T00:19:39.649Z,21.27
2017-08-21T00:22:07.997Z,17.20
2017-08-21T00:24:36.363Z,26.77
2017-08-21T00:27:05.181Z,19.93
2017-08-21T00:29:33.555Z,17.40
2017-08-21T00:32:01.902Z,12.43
2017-08-21T00:34:30.281Z,16.80
2017-08-21T00:36:59.385Z,10.70
2017-08-21T00:39:27.726Z,16.80
2017-08-21T00:41:56.357Z,15.70
2017-08-21T00:44:24.947Z,14.23
2017-08-21T00:46:53.337Z,15.30
2017-08-21T00:49:21.788Z,27.43
2017-08-21T00:51:50.201Z,20.33
2017-08-21T00:54:18.607Z,20.60
2017-08-21T00:56:46.998Z,18.73
2017-08-21T00:59:15.375Z,17.50
2017-08-21T01:01:43.744Z,28.00
2017-08-21T01:04:12.701Z,24.90
2017-08-21T01:06:41.055Z,20.23
2017-08-21T01:09:09.456Z,15.90
2017-08-21T01:11:37.912Z,16.10
2017-08-21T01:14:06.263Z,17.40
2017-08-21T01:16:34.635Z,30.57
2017-08-21T01:19:03.054Z,21.20
2017-08-21T01:21:31.445Z,18.50
2017-08-21T01:23:59.862Z,16.60
2017-08-21T01:26:28.241Z,34.37
2017-08-21T01:28:56.594Z,15.93
2017-08-21T01:31:25.603Z,14.30
2017-08-21T01:33:54.087Z,10.97
2017-08-21T01:36:22.447Z,13.53
2017-08-21T01:38:50.821Z,14.80
2017-08-21T01:41:19.959Z,23.63
2017-08-21T01:43:48.536Z,11.30
2017-08-21T01:46:16.902Z,12.10
2017-08-21T01:48:45.339Z,16.77
2017-08-21T01:51:13.734Z,24.77
2017-08-21T01:53:42.126Z,17.37
2017-08-21T01:56:10.802Z,30.03
2017-08-21T01:58:39.323Z,10.10
2017-08-21T02:01:07.719Z,23.13
2017-08-21T02:03:36.168Z,19.60
2017-08-21T02:06:04.657Z,16.07
2017-08-21T02:08:33.050Z,11.60
2017-08-21T02:11:01.524Z,16.53
2017-08-21T02:13:29.877Z,14.27
2017-08-21T02:15:58.238Z,17.40
2017-08-21T02:18:27.206Z,23.47
2017-08-21T02:20:55.637Z,28.37
2017-08-21T02:23:24.036Z,24.13
2017-08-21T02:25:52.549Z,23.77
2017-08-21T02:28:21.030Z,20.13
2017-08-21T02:30:49.529Z,17.83
2017-08-21T02:33:18.122Z,17.77
2017-08-21T02:35:46.521Z,29.90
2017-08-21T02:38:32.707Z,29.77
2017-08-21T02:41:01.079Z,23.17
2017-08-21T02:43:29.466Z,23.00
2017-08-21T02:45:58.426Z,18.43
2017-08-21T02:48:26.810Z,20.60
2017-08-21T02:50:55.195Z,19.17
2017-08-21T02:53:23.658Z,13.10
2017-08-21T02:55:52.352Z,13.53
2017-08-21T02:58:20.742Z,17.93
2017-08-21T03:00:49.715Z,19.97
2017-08-21T03:03:18.923Z,22.00
2017-08-21T03:05:47.405Z,24.63
2017-08-21T03:08:15.913Z,30.43
2017-08-21T03:10:44.282Z,15.10
2017-08-21T03:13:12.629Z,28.37
2017-08-21T03:15:41.011Z,25.40
2017-08-21T03:18:09.388Z,24.90
2017-08-21T03:20:37.773Z,18.50
2017-08-21T03:23:06.603Z,22.40
2017-08-21T03:25:34.976Z,21.67
2017-08-21T03:28:03.356Z,16.80
2017-08-21T03:30:31.740Z,31.60
2017-08-21T03:33:00.872Z,23.17
2017-08-21T03:35:29.230Z,14.03
2017-08-21T03:37:57.603Z,21.93
2017-08-21T03:40:25.950Z,24.13
2017-08-21T03:42:55.266Z,25.47
2017-08-21T03:45:23.813Z,16.93
2017-08-21T03:47:52.197Z,21.63
2017-08-21T03:50:20.551Z,20.30
2017-08-21T03:52:49.188Z,18.87
2017-08-21T03:55:17.562Z,21.77
2017-08-21T03:57:45.950Z,29.30
2017-08-21T04:00:15.117Z,22.93
2017-08-21T04:02:43.469Z,27.07
2017-08-21T04:05:12.027Z,23.30
2017-08-21T04:07:41.159Z,22.40
2017-08-21T04:10:09.525Z,20.10
2017-08-21T04:12:37.912Z,21.20
2017-08-21T04:15:06.299Z,23.43
2017-08-21T04:17:34.681Z,26.60
2017-08-21T04:20:03.782Z,19.27
2017-08-21T04:22:32.167Z,24.73
2017-08-21T04:25:00.530Z,34.93
2017-08-21T04:27:28.870Z,31.07
2017-08-21T04:29:57.413Z,22.63
2017-08-21T04:32:26.189Z,24.83
2017-08-21T04:34:54.555Z,25.60
2017-08-21T04:37:22.977Z,23.17
2017-08-21T04:39:51.356Z,29.83
2017-08-21T04:42:19.722Z,18.73
2017-08-21T04:44:48.123Z,21.60
2017-08-21T04:47:16.539Z,25.23
2017-08-21T04:49:44.893Z,20.93
2017-08-21T04:52:13.352Z,21.77
2017-08-21T04:54:41.708Z,19.50
2017-08-21T04:57:10.087Z,21.60
2017-08-21T04:59:38.475Z,20.07
2017-08-21T05:02:07.622Z,21.13
2017-08-21T05:04:35.968Z,22.70
2017-08-21T05:07:04.481Z,18.70
2017-08-21T05:09:32.832Z,27.57
2017-08-21T05:12:01.184Z,25.03
2017-08-21T05:14:29.649Z,31.87
2017-08-21T05:16:58.023Z,13.67
2017-08-21T05:19:26.384Z,16.20
2017-08-21T05:21:54.766Z,15.73
2017-08-21T05:24:24.029Z,23.37
2017-08-21T05:26:52.365Z,26.57
2017-08-21T05:29:20.757Z,23.93
2017-08-21T05:31:49.090Z,24.17
2017-08-21T05:34:18.016Z,32.73
2017-08-21T05:36:46.535Z,22.00
2017-08-21T05:39:14.972Z,19.57
2017-08-21T05:41:43.318Z,22.13
2017-08-21T05:44:12.689Z,14.27
2017-08-21T05:46:41.067Z,19.00
2017-08-21T05:49:09.433Z,17.80
2017-08-21T05:51:37.830Z,21.83
2017-08-21T05:54:06.219Z,19.33
2017-08-21T05:56:34.600Z,13.40
2017-08-21T05:59:03.805Z,21.57
2017-08-21T06:01:32.174Z,17.67
2017-08-21T06:04:00.534Z,7.73
2017-08-21T06:06:28.930Z,18.63
2017-08-21T06:08:57.690Z,22.93
2017-08-21T06:11:26.046Z,10.03
2017-08-21T06:13:54.412Z,12.63
2017-08-21T06:16:23.338Z,16.53
2017-08-21T06:18:51.671Z,16.90
2017-08-21T06:21:20.909Z,11.60
2017-08-21T06:23:49.264Z,12.80
2017-08-21T06:26:17.610Z,12.10
2017-08-21T06:28:46.633Z,9.63
2017-08-21T06:31:15.012Z,11.57
2017-08-21T06:33:43.513Z,23.17
2017-08-21T06:36:12.794Z,15.67
2017-08-21T06:38:41.180Z,13.30
2017-08-21T06:41:09.852Z,12.90
2017-08-21T06:43:38.593Z,23.70
2017-08-21T06:46:07.078Z,10.07
2017-08-21T06:48:35.437Z,6.67
2017-08-21T06:51:03.853Z,13.60
2017-08-21T06:53:32.215Z,8.07
2017-08-21T06:56:00.593Z,15.77
2017-08-21T06:58:29.047Z,15.23
2017-08-21T07:00:57.487Z,13.20
2017-08-21T07:03:25.889Z,13.13
2017-08-21T07:05:54.675Z,13.13
2017-08-21T07:08:23.049Z,11.10
2017-08-21T07:10:51.437Z,11.07
2017-08-21T07:13:19.841Z,11.63
2017-08-21T07:15:48.221Z,12.83
2017-08-21T07:18:16.573Z,11.50
2017-08-21T07:20:44.951Z,9.10
2017-08-21T07:23:13.302Z,7.67
2017-08-21T07:25:41.647Z,13.60
2017-08-21T07:28:10.713Z,10.13
2017-08-21T07:30:39.074Z,14.10
2017-08-21T07:33:07.455Z,11.63
2017-08-21T07:35:35.854Z,16.10
2017-08-21T07:38:04.200Z,11.40
2017-08-21T07:40:32.546Z,9.27
2017-08-21T07:43:01.397Z,15.60
2017-08-21T07:45:29.760Z,19.50
2017-08-21T07:47:58.154Z,10.67
2017-08-21T07:50:26.601Z,8.50
2017-08-21T07:52:55.037Z,12.83
2017-08-21T07:55:23.453Z,9.37
2017-08-21T07:57:51.845Z,14.87
2017-08-21T08:00:20.599Z,9.90
2017-08-21T08:02:48.963Z,15.27
2017-08-21T08:05:17.347Z,13.03
2017-08-21T08:07:45.691Z,8.70
2017-08-21T08:10:14.063Z,17.80
2017-08-21T08:12:42.699Z,11.07
2017-08-21T08:15:11.060Z,16.87
2017-08-21T08:17:39.439Z,16.50
2017-08-21T08:20:07.842Z,10.63
2017-08-21T08:22:36.235Z,21.77
2017-08-21T08:25:04.588Z,11.60
2017-08-21T08:27:33.007Z,11.67
2017-08-21T08:30:01.429Z,10.27
2017-08-21T08:32:29.780Z,6.37
2017-08-21T08:34:58.578Z,8.07
2017-08-21T08:37:26.922Z,9.23
2017-08-21T08:39:55.288Z,7.80
2017-08-21T08:42:23.695Z,18.47
2017-08-21T08:44:52.847Z,4.67
2017-08-21T08:47:21.210Z,5.00
2017-08-21T08:49:49.602Z,8.03
2017-08-21T08:52:17.962Z,9.17
2017-08-21T08:54:46.332Z,10.30
2017-08-21T08:57:14.754Z,8.17
2017-08-21T08:59:43.090Z,11.73
2017-08-21T09:02:12.226Z,9.50
2017-08-21T09:04:40.607Z,10.03
2017-08-21T09:07:09.951Z,15.10
2017-08-21T09:09:38.319Z,7.20
2017-08-21T09:12:06.700Z,7.93
2017-08-21T09:14:35.067Z,13.93
2017-08-21T09:17:03.413Z,25.20
2017-08-21T09:19:31.921Z,11.33
2017-08-21T09:22:00.997Z,6.40
2017-08-21T09:24:29.362Z,7.97
2017-08-21T09:26:57.751Z,5.50
2017-08-21T09:29:26.123Z,10.70
2017-08-21T09:31:54.507Z,6.40
2017-08-21T09:34:22.894Z,13.53
2017-08-21T09:36:51.240Z,7.40
2017-08-21T09:39:19.606Z,10.43
2017-08-21T09:41:49.377Z,10.37
2017-08-21T09:44:17.748Z,5.73
2017-08-21T09:46:46.114Z,7.37
2017-08-21T09:49:14.493Z,5.80
2017-08-21T09:51:42.817Z,7.00
2017-08-21T09:54:11.186Z,6.47
2017-08-21T09:56:39.561Z,7.60
2017-08-21T09:59:07.918Z,3.73
2017-08-21T10:01:36.298Z,9.70
2017-08-21T10:04:05.433Z,19.70
2017-08-21T10:06:33.821Z,5.63
2017-08-21T10:09:02.794Z,7.90
2017-08-21T10:11:31.172Z,7.37
2017-08-21T10:13:59.529Z,10.90
2017-08-21T10:16:27.862Z,7.57
2017-08-21T10:18:56.286Z,4.00
2017-08-21T10:21:24.653Z,8.23
2017-08-21T10:23:53.034Z,5.73
2017-08-21T10:26:21.489Z,9.57
2017-08-21T10:28:49.836Z,4.70
2017-08-21T10:31:18.181Z,5.40
2017-08-21T10:33:46.581Z,5.43
2017-08-21T10:36:14.955Z,5.87
2017-08-21T10:38:43.326Z,2.97
2017-08-21T10:41:11.720Z,7.97
2017-08-21T10:43:40.097Z,4.73
2017-08-21T10:46:08.463Z,10.73
2017-08-21T10:48:37.060Z,4.10
2017-08-21T10:51:05.436Z,6.17
2017-08-21T10:53:33.800Z,4.23
2017-08-21T10:56:02.214Z,4.33
2017-08-21T10:58:30.577Z,6.90
2017-08-21T11:00:58.958Z,3.80
2017-08-21T11:03:27.322Z,6.70
2017-08-21T11:05:55.924Z,6.23
2017-08-21T11:08:24.296Z,4.33
2017-08-21T11:10:53.589Z,5.37
2017-08-21T11:13:21.932Z,7.57
2017-08-21T11:15:50.295Z,8.27
2017-08-21T11:18:18.727Z,6.57
2017-08-21T11:20:47.093Z,4.57
2017-08-21T11:23:15.442Z,5.50
2017-08-21T11:25:43.828Z,6.33
2017-08-21T11:28:12.198Z,4.37
2017-08-21T11:30:41.185Z,12.97
2017-08-21T11:33:09.910Z,5.10
2017-08-21T11:35:38.900Z,6.60
2017-08-21T11:38:07.259Z,8.00
2017-08-21T11:40:35.643Z,4.07
2017-08-21T11:43:04.033Z,5.90
2017-08-21T11:45:32.396Z,5.33
2017-08-21T11:48:00.804Z,7.50
2017-08-21T11:50:29.187Z,10.07
2017-08-21T11:52:57.535Z,3.57
2017-08-21T11:55:26.466Z,7.80
2017-08-21T11:57:54.865Z,9.53
2017-08-21T12:00:24.045Z,2.60
2017-08-21T12:02:52.426Z,9.77
2017-08-21T12:05:20.898Z,8.33
2017-08-21T12:07:49.241Z,7.10
2017-08-21T12:10:17.628Z,2.73
2017-08-21T12:12:45.994Z,3.63
2017-08-21T12:15:14.350Z,3.90
2017-08-21T12:17:43.557Z,7.73
2017-08-21T12:20:11.988Z,8.80
2017-08-21T12:22:40.396Z,5.23
2017-08-21T12:25:08.793Z,9.20
2017-08-21T12:27:38.394Z,6.20
2017-08-21T12:30:06.748Z,8.13
2017-08-21T12:32:35.179Z,7.10
2017-08-21T12:35:03.655Z,5.90
2017-08-21T12:37:32.066Z,7.00
2017-08-21T12:40:00.505Z,7.20
2017-08-21T12:42:28.873Z,9.80
2017-08-21T12:44:57.221Z,12.00
2017-08-21T12:47:25.583Z,7.60
2017-08-21T12:49:54.721Z,6.10
2017-08-21T12:52:23.082Z,8.53
2017-08-21T12:54:51.453Z,4.10
2017-08-21T12:57:19.798Z,9.50
2017-08-21T12:59:48.174Z,2.93
2017-08-21T13:02:16.790Z,13.83
2017-08-21T13:04:45.197Z,5.30
2017-08-21T13:07:13.568Z,2.73
2017-08-21T13:09:41.959Z,2.03
2017-08-21T13:12:10.332Z,4.20
2017-08-21T13:14:38.686Z,3.00
2017-08-21T13:17:07.111Z,4.23
2017-08-21T13:19:35.500Z,2.20
2017-08-21T13:22:03.856Z,10.10
2017-08-21T13:24:32.300Z,6.73
2017-08-21T13:27:00.648Z,5.43
2017-08-21T13:29:29.031Z,4.30
2017-08-21T13:31:58.234Z,4.10
2017-08-21T13:34:26.639Z,6.80
2017-08-21T13:36:55.015Z,11.13
2017-08-21T13:39:23.433Z,16.10
2017-08-21T13:41:51.778Z,7.43
2017-08-21T13:44:20.156Z,10.47
2017-08-21T13:46:48.584Z,10.00
2017-08-21T13:49:16.943Z,7.40
2017-08-21T13:51:45.298Z,11.43
2017-08-21T13:54:13.692Z,4.53
2017-08-21T13:56:42.026Z,3.90
2017-08-21T13:59:10.400Z,8.60
2017-08-21T14:01:38.807Z,9.50
2017-08-21T14:04:07.165Z,3.90
2017-08-21T14:06:35.576Z,3.73
2017-08-21T14:09:04.304Z,10.13
2017-08-21T14:11:32.786Z,8.87
2017-08-21T14:14:01.145Z,15.37
2017-08-21T14:16:29.553Z,9.73
2017-08-21T14:18:57.905Z,8.30
2017-08-21T14:21:26.277Z,4.00
2017-08-21T14:23:54.933Z,7.13
2017-08-21T14:26:23.722Z,6.80
2017-08-21T14:28:52.098Z,6.07
2017-08-21T14:31:21.002Z,7.07
2017-08-21T14:33:49.448Z,4.90
2017-08-21T14:36:17.861Z,6.13
2017-08-21T14:38:46.364Z,2.70
2017-08-21T14:41:14.791Z,5.73
2017-08-21T14:43:43.331Z,10.00
2017-08-21T14:46:11.703Z,6.13
2017-08-21T14:48:40.067Z,4.60
2017-08-21T14:51:08.440Z,6.90
2017-08-21T14:53:37.147Z,13.33
2017-08-21T14:56:05.526Z,12.93
2017-08-21T14:58:33.966Z,5.87
2017-08-21T15:01:03.103Z,3.30
2017-08-21T15:03:31.515Z,3.93
2017-08-21T15:05:59.951Z,6.93
2017-08-21T15:08:28.435Z,6.73
2017-08-21T15:10:56.830Z,5.87
2017-08-21T15:13:25.199Z,7.67
2017-08-21T15:15:53.693Z,4.90
2017-08-21T15:18:22.051Z,10.57
2017-08-21T15:20:50.397Z,2.33
2017-08-21T15:23:19.030Z,3.60
2017-08-21T15:25:47.623Z,4.60
2017-08-21T15:28:17.102Z,3.67
2017-08-21T15:30:45.504Z,3.83
2017-08-21T15:33:13.933Z,4.70
2017-08-21T15:35:43.060Z,4.77
2017-08-21T15:38:11.731Z,4.30
2017-08-21T15:40:40.081Z,8.40
2017-08-21T15:43:08.448Z,6.50
2017-08-21T15:45:37.822Z,10.77
2017-08-21T15:48:06.253Z,5.80
2017-08-21T15:50:34.636Z,3.90
2017-08-21T15:53:03.119Z,7.47
2017-08-21T15:55:31.589Z,6.90
2017-08-21T15:58:00.850Z,10.33
2017-08-21T16:00:30.123Z,12.43
2017-08-21T16:02:58.530Z,4.43
2017-08-21T16:05:26.966Z,6.27
2017-08-21T16:07:55.385Z,3.63
2017-08-21T16:10:23.799Z,4.97
2017-08-21T16:12:52.269Z,7.60
2017-08-21T16:15:20.733Z,5.50
2017-08-21T16:17:49.553Z,5.57
2017-08-21T16:20:18.439Z,4.00
2017-08-21T16:22:47.285Z,4.67
2017-08-21T16:25:15.622Z,5.03
2017-08-21T16:27:43.998Z,2.57
2017-08-21T16:30:12.683Z,3.50
2017-08-21T16:32:41.120Z,2.40
2017-08-21T16:35:09.502Z,9.73
2017-08-21T16:37:37.940Z,7.30
2017-08-21T16:40:07.099Z,6.93
2017-08-21T16:42:35.512Z,6.93
2017-08-21T16:45:04.309Z,3.10
2017-08-21T16:47:32.677Z,2.73
2017-08-21T16:50:01.043Z,8.20
2017-08-21T16:52:29.453Z,5.17
2017-08-21T16:54:57.882Z,9.30
2017-08-21T16:57:26.378Z,6.03
2017-08-21T16:59:54.767Z,10.73
2017-08-21T17:02:23.230Z,4.83
2017-08-21T17:04:51.603Z,4.50
2017-08-21T17:07:21.082Z,12.13
2017-08-21T17:09:49.572Z,6.00
2017-08-21T17:12:17.949Z,12.23
2017-08-21T17:14:46.329Z,7.57
2017-08-21T17:17:15.393Z,2.60
2017-08-21T17:19:43.774Z,4.73
2017-08-21T17:22:12.394Z,5.03
2017-08-21T17:24:40.767Z,6.10
2017-08-21T17:27:09.142Z,5.30
2017-08-21T17:29:37.628Z,6.13
2017-08-21T17:32:05.966Z,9.33
2017-08-21T17:34:35.145Z,12.77
2017-08-21T17:37:03.549Z,13.50
2017-08-21T17:39:31.901Z,4.93
2017-08-21T17:42:00.266Z,3.03
2017-08-21T17:44:28.886Z,5.80
2017-08-21T17:46:57.272Z,6.00
2017-08-21T17:49:26.524Z,12.40
2017-08-21T17:51:55.395Z,21.87
2017-08-21T17:54:23.772Z,6.33
2017-08-21T17:56:52.142Z,5.30
2017-08-21T17:59:20.636Z,4.27
2017-08-21T18:01:48.994Z,4.00
2017-08-21T18:04:17.343Z,6.50
2017-08-21T18:06:45.720Z,4.83
2017-08-21T18:09:14.118Z,6.90
2017-08-21T18:11:42.506Z,6.20
2017-08-21T18:14:11.766Z,9.73
2017-08-21T18:16:40.164Z,4.33
2017-08-21T18:19:08.527Z,6.23
2017-08-21T18:21:37.710Z,5.50
2017-08-21T18:24:06.061Z,8.83
2017-08-21T18:26:34.424Z,11.03
2017-08-21T18:29:02.805Z,14.93
2017-08-21T18:31:31.186Z,19.37
2017-08-21T18:33:59.563Z,5.13
2017-08-21T18:36:27.974Z,7.50
2017-08-21T18:38:56.364Z,5.27
2017-08-21T18:41:24.745Z,10.07
2017-08-21T18:43:53.312Z,14.33
2017-08-21T18:46:21.713Z,8.57
2017-08-21T18:48:50.080Z,9.03
2017-08-21T18:51:18.793Z,3.17
2017-08-21T18:53:47.376Z,7.73
2017-08-21T18:56:15.739Z,16.10
2017-08-21T18:58:44.522Z,8.77
2017-08-21T19:01:12.887Z,11.63
2017-08-21T19:03:41.266Z,6.00
2017-08-21T19:06:09.963Z,8.20
2017-08-21T19:08:38.323Z,8.17
2017-08-21T19:11:06.715Z,10.67
2017-08-21T19:13:36.315Z,8.70
2017-08-21T19:16:04.683Z,8.90
2017-08-21T19:18:33.019Z,9.80
2017-08-21T19:21:02.159Z,9.03
2017-08-21T19:23:30.524Z,13.57
2017-08-21T19:25:58.871Z,9.40
2017-08-21T19:28:27.404Z,7.63
2017-08-21T19:30:55.750Z,6.90
2017-08-21T19:33:24.116Z,8.23
2017-08-21T19:35:53.089Z,4.47
2017-08-21T19:38:21.539Z,12.43
2017-08-21T19:40:50.573Z,7.57
2017-08-21T19:43:19.170Z,10.20
2017-08-21T19:45:47.553Z,13.20
2017-08-21T19:48:15.903Z,3.90
2017-08-21T19:50:45.495Z,11.23
2017-08-21T19:53:14.644Z,22.10
2017-08-21T19:55:43.007Z,11.30
2017-08-21T19:58:11.553Z,7.40
2017-08-21T20:00:39.939Z,4.23
2017-08-21T20:03:08.275Z,7.27
2017-08-21T20:05:37.713Z,12.43
2017-08-21T20:08:06.092Z,4.83
2017-08-21T20:10:34.448Z,11.73
2017-08-21T20:13:02.977Z,5.70
2017-08-21T20:15:31.345Z,9.80
2017-08-21T20:17:59.745Z,9.97
2017-08-21T20:20:29.342Z,8.73
2017-08-21T20:22:57.703Z,3.33
2017-08-21T20:25:26.072Z,5.43
2017-08-21T20:27:54.933Z,13.90
2017-08-21T20:30:23.328Z,11.20
2017-08-21T20:32:51.742Z,10.27
2017-08-21T20:35:20.512Z,12.97
2017-08-21T20:37:48.890Z,5.53
2017-08-21T20:40:17.243Z,8.47
2017-08-21T20:42:45.793Z,7.40
2017-08-21T20:45:14.179Z,6.37
2017-08-21T20:47:42.549Z,13.63
2017-08-21T20:50:11.612Z,8.53
2017-08-21T20:52:39.974Z,9.07
2017-08-21T20:55:09.262Z,12.67
2017-08-21T20:57:37.975Z,14.20
2017-08-21T21:00:07.225Z,7.10
2017-08-21T21:02:35.684Z,8.70
2017-08-21T21:05:04.216Z,13.63
2017-08-21T21:07:32.583Z,11.40
2017-08-21T21:10:01.017Z,11.20
2017-08-21T21:12:29.852Z,13.10
2017-08-21T21:14:58.228Z,8.53
2017-08-21T21:17:26.616Z,10.23
2017-08-21T21:19:56.267Z,29.33
2017-08-21T21:22:24.642Z,5.40
2017-08-21T21:24:53.008Z,14.30
2017-08-21T21:27:21.692Z,5.67
2017-08-21T21:29:50.080Z,12.93
2017-08-21T21:32:18.420Z,8.07
2017-08-21T21:34:47.417Z,13.27
2017-08-21T21:37:15.823Z,7.27
2017-08-21T21:39:44.215Z,12.83
2017-08-21T21:42:13.538Z,17.63
2017-08-21T21:44:41.898Z,3.83
2017-08-21T21:47:10.307Z,10.33
2017-08-21T21:49:38.961Z,13.63
2017-08-21T21:52:07.336Z,15.63
2017-08-21T21:54:35.693Z,17.97
2017-08-21T21:57:04.649Z,5.73
2017-08-21T21:59:33.067Z,20.70
2017-08-21T22:02:01.407Z,9.87
2017-08-21T22:04:29.960Z,12.60
2017-08-21T22:06:58.352Z,17.60
2017-08-21T22:09:26.732Z,30.43
2017-08-21T22:11:56.031Z,14.40
2017-08-21T22:14:24.383Z,15.23
2017-08-21T22:16:52.723Z,22.63
2017-08-21T22:19:22.051Z,7.13
2017-08-21T22:21:50.424Z,12.60
2017-08-21T22:24:19.346Z,7.87
2017-08-21T22:26:48.305Z,6.63
2017-08-21T22:29:16.646Z,15.53
2017-08-21T22:31:45.000Z,12.00
2017-08-21T22:34:13.771Z,4.67
2017-08-21T22:36:42.107Z,5.70
2017-08-21T22:39:10.479Z,15.97
2017-08-21T22:41:39.304Z,11.80
2017-08-21T22:44:07.672Z,13.80
2017-08-21T22:46:36.030Z,4.43
2017-08-21T22:49:06.163Z,4.73
2017-08-21T22:51:34.485Z,6.93
2017-08-21T22:54:02.835Z,13.60
2017-08-21T22:56:31.746Z,9.27
2017-08-21T22:59:00.121Z,8.90
2017-08-21T23:01:28.483Z,12.63
2017-08-21T23:03:57.582Z,8.53
2017-08-21T23:06:25.901Z,9.47
2017-08-21T23:08:54.269Z,13.83
2017-08-21T23:11:23.653Z,8.27
2017-08-21T23:14:28.943Z,11.73
2017-08-21T23:16:57.616Z,31.83
2017-08-21T23:19:25.975Z,4.80
2017-08-21T23:21:54.344Z,4.13
2017-08-21T23:24:23.317Z,12.43
2017-08-21T23:26:51.673Z,5.50
2017-08-21T23:29:20.041Z,15.60
2017-08-21T23:31:49.584Z,15.13
2017-08-21T23:34:17.951Z,9.37
2017-08-21T23:36:46.292Z,9.87
2017-08-21T23:39:14.945Z,9.60
2017-08-21T23:41:43.306Z,13.10
2017-08-21T23:44:11.656Z,6.10
2017-08-21T23:46:41.164Z,11.53
2017-08-21T23:49:09.529Z,5.77
2017-08-21T23:51:37.916Z,6.87
2017-08-21T23:54:06.743Z,10.07
2017-08-21T23:56:35.931Z,4.00
2017-08-21T23:59:05.030Z,8.57
